Latest Coastal Weather Observations for St Lawrence

IDQ60701

Issued at 10:21 am EST Thursday 29 June 2017 (issued every 10 minutes, with the page automatically refreshed every 10 minutes)

About coastal observations | Map of coastal stations | Coastal observations for QLD | Marine services | Other Formats
Station Details ID: 033210 Name: ST LAWRENCE Lat: -22.35 Lon: 149.52 Height: 9.19 m
Data from the previous 72 hours. | See also: Recent months at St Lawrence
Date/Time
EST
Temp
°C
Wind Pressure Rain since
9am
mm
Weather Cloud Vis
km
Sea
Height
m
Swell
Dir  Spd
kts
Gust
kts
hPa Trend Height
m
Period
s
Dir
29/10:00am 20.0 WSW 4 5 1021.7 - 0.0 - - - - - - -
29/09:30am 19.2 WNW 3 4 1022.0 - 0.0 - - - - - - -
29/09:00am 18.8 SW 4 5 1021.7 - 0.8 - - - - - - -
29/08:30am 18.6 SW 4 7 1021.6 - 0.8 - - - - - - -
29/08:00am 18.3 WSW 4 6 1021.4 - 0.8 - - - - - - -
29/07:30am 18.3 W 6 8 1021.2 - 0.8 - - - - - - -
29/07:00am 18.3 WSW 3 4 1021.1 - 0.6 - - - - - - -
29/06:30am 18.3 CALM 0 0 1020.9 - 0.6 - - - - - - -
29/06:00am 18.3 CALM 0 3 1020.7 - 0.6 Recent precip. - - - - - -
29/05:30am 18.5 SSE 1 3 1020.7 - 0.4 - - - - - - -
29/05:00am 18.5 CALM 0 0 1020.6 - 0.0 - - - - - - -
29/04:30am 18.7 CALM 0 0 1020.4 - 0.0 - - - - - - -
29/04:00am 19.0 CALM 0 0 1020.5 - 0.0 - - - - - - -
29/03:30am 19.3 SSE 3 5 1020.6 - 0.0 - - - - - - -
29/03:00am 19.4 SSE 4 6 1020.7 - 0.0 - - - - - - -
29/02:30am 19.4 S 3 4 1020.9 - 0.0 - - - - - - -
29/02:00am 19.5 SSE 4 5 1021.1 - 0.0 - - - - - - -
29/01:30am 19.5 S 5 6 1021.3 - 0.0 - - - - - - -
29/01:00am 19.7 S 3 4 1021.6 - 0.0 - - - - - - -
29/12:30am 20.1 S 4 7 1021.8 - 0.0 - - - - - - -
29/12:00am 20.3 SSE 4 6 1022.0 - 0.0 - - - - - - -
 
Date/Time
EST
Temp
°C
Wind Pressure Rain since
9am
mm
Weather Cloud Vis
km
Sea
Height
m
Swell
Dir  Spd
kts
Gust
kts
hPa Trend Height
m
Period
s
Dir
28/11:30pm 20.1 SSE 4 5 1022.1 - 0.0 - - - - - - -
28/11:00pm 19.8 SSE 3 3 1022.2 - 0.0 - - - - - - -
28/10:30pm 19.6 S 1 3 1022.4 - 0.0 - - - - - - -
28/10:00pm 19.7 CALM 0 0 1022.3 - 0.0 - - - - - - -
28/09:30pm 20.1 CALM 0 0 1022.2 - 0.0 - - - - - - -
28/09:00pm 20.4 E 3 5 1022.0 - 0.0 - - - - - - -
28/08:30pm 21.0 NE 1 3 1022.0 - 0.0 - - - - - - -
28/08:00pm 21.5 ENE 3 6 1021.6 - 0.0 - - - - - - -
28/07:30pm 21.9 ENE 5 9 1021.4 - 0.0 - - - - - - -
28/07:00pm 22.1 ENE 4 8 1021.1 - 0.0 - - - - - - -
28/06:30pm 22.1 NNE 3 4 1020.8 - 0.0 - - - - - - -
28/06:00pm 22.3 NE 4 5 1020.6 - 0.0 - - - - - - -
28/05:30pm 22.4 NE 3 5 1020.5 - 0.0 - - - - - - -
28/05:00pm 22.8 NE 5 7 1020.3 - 0.0 - - - - - - -
28/04:30pm 24.0 NNE 7 9 1020.1 - 0.0 - - - - - - -
28/04:00pm 24.0 NNE 8 11 1020.0 - 0.0 - - - - - - -
28/03:30pm 24.8 NE 8 11 1019.8 - 0.0 - - - - - - -
28/03:00pm 24.7 NE 9 12 1019.7 - 0.0 - - - - - - -
28/02:30pm 24.8 ENE 8 12 1019.8 - 0.0 - - - - - - -
28/02:00pm 25.1 NE 8 13 1019.7 - 0.0 - - - - - - -
28/01:30pm 25.3 NE 10 15 1019.9 - 0.0 - - - - - - -
28/01:00pm 25.2 NE 8 13 1020.2 - 0.0 - - - - - - -
28/12:30pm 24.7 NNE 8 13 1020.6 - 0.0 - - - - - - -
28/12:00pm 24.7 NE 9 12 1021.1 - 0.0 - - - - - - -
28/11:30am 23.8 NE 9 13 1021.5 - 0.0 - - - - - - -
28/11:00am 24.5 ENE 7 12 1021.9 - 0.0 - - - - - - -
28/10:30am 23.7 ENE 7 10 1022.0 - 0.0 - - - - - - -
28/10:00am 23.3 ENE 5 7 1022.1 - 0.0 - - - - - - -
28/09:30am 21.1 SSE 3 4 1022.1 - 0.0 - - - - - - -
28/09:00am 19.2 S 5 7 1022.2 - 0.0 - - - - - - -
28/08:30am 17.5 SSW 4 7 1022.0 - 0.0 - - - - - - -
28/08:00am 15.7 SW 3 4 1021.8 - 0.0 - - - - - - -
28/07:30am 14.2 S 3 4 1021.3 - 0.0 - - - - - - -
28/07:00am 13.6 SW 3 4 1021.1 - 0.0 - - - - - - -
28/06:30am 12.8 CALM 0 0 1020.9 - 0.0 - - - - - - -
28/06:00am 12.9 CALM 0 0 1020.7 - 0.0 - - - - - - -
28/05:30am 14.1 CALM 0 0 1020.5 - 0.0 - - - - - - -
28/05:00am 13.6 CALM 0 0 1020.3 - 0.0 - - - - - - -
28/04:30am 13.5 CALM 0 0 1020.5 - 0.0 - - - - - - -
28/04:00am 13.4 CALM 0 0 1020.6 - 0.0 - - - - - - -
28/03:30am 13.9 SSW 3 3 1020.8 - 0.0 - - - - - - -
28/03:00am 14.1 CALM 0 0 1020.9 - 0.0 - - - - - - -
28/02:30am 14.4 CALM 0 0 1021.1 - 0.0 - - - - - - -
28/02:00am 14.8 CALM 0 0 1021.3 - 0.0 - - - - - - -
28/01:30am 14.8 WSW 2 4 1021.6 - 0.0 - - - - - - -
28/01:00am 14.7 CALM 0 3 1021.6 - 0.0 - - - - - - -
28/12:30am 14.5 W 3 3 1021.7 - 0.0 - - - - - - -
28/12:00am 14.6 CALM 0 0 1021.7 - 0.0 - - - - - - -
 
Date/Time
EST
Temp
°C
Wind Pressure Rain since
9am
mm
Weather Cloud Vis
km
Sea
Height
m
Swell
Dir  Spd
kts
Gust
kts
hPa Trend Height
m
Period
s
Dir
27/11:30pm 15.3 SW 3 3 1021.9 - 0.0 - - - - - - -
27/11:00pm 15.7 CALM 0 0 1022.1 - 0.0 - - - - - - -
27/10:30pm 16.2 WSW 4 5 1022.0 - 0.0 - - - - - - -
27/10:00pm 16.7 E 2 4 1022.2 - 0.0 - - - - - - -
27/09:30pm 18.7 ESE 4 6 1022.2 - 0.0 - - - - - - -
27/09:00pm 19.0 E 4 6 1022.0 - 0.0 - - - - - - -
27/08:30pm 19.4 E 5 8 1022.2 - 0.0 - - - - - - -
27/08:00pm 19.7 E 5 7 1021.9 - 0.0 - - - - - - -
27/07:30pm 20.1 E 5 6 1021.7 - 0.0 - - - - - - -
27/07:00pm 20.7 E 6 9 1021.6 - 0.0 - - - - - - -
27/06:30pm 20.8 E 5 8 1021.4 - 0.0 - - - - - - -
27/06:00pm 21.0 E 5 7 1021.4 - 0.0 - - - - - - -
27/05:30pm 21.5 ENE 5 7 1021.1 - 0.0 - - - - - - -
27/05:00pm 22.4 ENE 6 9 1020.9 - 0.0 - - - - - - -
27/04:30pm 23.0 NE 7 11 1020.7 - 0.0 - - - - - - -
27/04:00pm 23.5 NE 9 12 1020.4 - 0.0 - - - - - - -
27/03:30pm 23.9 NE 9 13 1020.2 - 0.0 - - - - - - -
27/03:00pm 24.1 NNE 9 13 1020.2 - 0.0 - - - - - - -
27/02:30pm 24.6 NNE 9 13 1020.3 - 0.0 - - - - - - -
27/02:00pm 25.5 ENE 9 12 1020.3 - 0.0 - - - - - - -
27/01:30pm 24.5 ENE 8 12 1020.4 - 0.0 - - - - - - -
27/01:00pm 25.1 ENE 8 15 1020.6 - 0.0 - - - - - - -
27/12:30pm 24.6 E 8 13 1021.0 - 0.0 - - - - - - -
27/12:00pm 24.2 ESE 8 12 1021.5 - 0.0 - - - - - - -
27/11:30am 23.4 E 6 10 1022.1 - 0.0 - - - - - - -
27/11:00am 23.3 ESE 9 13 1022.2 - 0.0 - - - - - - -
27/10:30am 22.6 SE 7 9 1022.3 - 0.0 - - - - - - -
27/10:00am 21.2 SSE 5 7 1022.5 - 0.0 - - - - - - -
27/09:30am 20.0 S 6 8 1022.6 - 0.0 - - - - - - -
27/09:00am 18.7 S 6 8 1022.4 - 0.0 - - - - - - -
27/08:30am 17.1 S 4 7 1022.3 - 0.0 - - - - - - -
27/08:00am 14.6 CALM 0 0 1022.0 - 0.0 - - - - - - -
27/07:30am 12.8 SW 3 4 1021.6 - 0.0 - - - - - - -
27/07:00am 11.5 S 4 5 1021.4 - 0.0 - - - - - - -
27/06:30am 11.0 S 3 4 1021.2 - 0.0 - - - - - - -
27/06:00am 11.1 SSW 3 4 1020.9 - 0.0 - - - - - - -
27/05:30am 11.3 WSW 3 4 1020.8 - 0.0 - - - - - - -
27/05:00am 11.6 SSW 3 4 1020.6 - 0.0 - - - - - - -
27/04:30am 11.7 S 3 4 1020.8 - 0.0 - - - - - - -
27/04:00am 12.0 CALM 0 0 1020.7 - 0.0 - - - - - - -
27/03:30am 12.2 CALM 0 0 1020.8 - 0.0 - - - - - - -
27/03:00am 12.4 CALM 0 0 1020.8 - 0.0 - - - - - - -
27/02:30am 12.2 CALM 0 0 1021.0 - 0.0 - - - - - - -
27/02:00am 12.8 CALM 0 3 1021.0 - 0.0 - - - - - - -
27/01:30am 13.8 SSW 3 4 1021.1 - 0.0 - - - - - - -
27/01:00am 13.3 CALM 0 0 1021.1 - 0.0 - - - - - - -
27/12:30am 13.2 CALM 0 0 1021.2 - 0.0 - - - - - - -
27/12:00am 13.4 CALM 0 0 1021.2 - 0.0 - - - - - - -
 
Date/Time
EST
Temp
°C
Wind Pressure Rain since
9am
mm
Weather Cloud Vis
km
Sea
Height
m
Swell
Dir  Spd
kts
Gust
kts
hPa Trend Height
m
Period
s
Dir
26/11:30pm 13.9 CALM 0 1 1021.3 - 0.0 - - - - - - -
26/11:00pm 14.5 CALM 0 0 1021.4 - 0.0 - - - - - - -
26/10:30pm 14.5 CALM 0 0 1021.5 - 0.0 - - - - - - -
26/10:00pm 15.3 CALM 0 0 1021.5 - 0.0 - - - - - - -
26/09:30pm 15.4 ENE 1 3 1021.1 - 0.0 - - - - - - -
26/09:00pm 15.6 CALM 0 0 1021.0 - 0.0 - - - - - - -
26/08:30pm 16.3 CALM 0 0 1020.9 - 0.0 - - - - - - -
26/08:00pm 16.9 CALM 0 0 1020.7 - 0.0 - - - - - - -
26/07:30pm 17.1 CALM 0 0 1020.4 - 0.0 - - - - - - -
26/07:00pm 18.2 CALM 0 0 1020.3 - 0.0 - - - - - - -
26/06:30pm 19.4 NNE 3 4 1019.8 - 0.0 - - - - - - -
26/06:00pm 20.1 NNE 4 5 1019.4 - 0.0 - - - - - - -
26/05:30pm 21.2 NNE 5 7 1019.1 - 0.0 - - - - - - -
26/05:00pm 22.5 NNE 6 8 1019.1 - 0.0 - - - - - - -
26/04:30pm 23.3 NNE 7 9 1019.0 - 0.0 - - - - - - -
26/04:00pm 23.7 NE 7 9 1019.0 - 0.0 - - - - - - -
26/03:30pm 24.2 NNE 7 9 1018.8 - 0.0 - - - - - - -
26/03:00pm 24.3 NNE 7 9 1018.7 - 0.0 - - - - - - -
26/02:30pm 24.7 NNE 7 9 1018.8 - 0.0 - - - - - - -
26/02:00pm 24.4 NNE 5 7 1019.2 - 0.0 - - - - - - -
26/01:30pm 24.5 NNE 7 9 1019.4 - 0.0 - - - - - - -
26/01:00pm 24.5 NNE 7 9 1019.6 - 0.0 - - - - - - -
26/12:30pm 24.3 NNE 5 8 1019.9 - 0.0 - - - - - - -
26/12:00pm 24.0 NE 6 9 1020.1 - 0.0 - - - - - - -
26/11:30am 23.7 NE 6 9 1020.6 - 0.0 - - - - - - -
26/11:00am 23.2 SSE 5 8 1020.9 - 0.0 - - - - - - -
26/10:30am 22.1 S 5 7 1021.1 - 0.0 - - - - - - -

Other Formats:

Comma delimited format used in spreadsheet applications
http://www.bom.gov.au/fwo/IDQ60701/IDQ60701.95369.axf

JavaScript Object Notation format (JSON) in row-major order
http://www.bom.gov.au/fwo/IDQ60701/IDQ60701.95369.json